Terminal Aerodrome Forecast
Issued by NWS

Home | Current Version | Previous Version | Text Only | Print | Product List | Glossary On
Versions: 1 2 3 4 5 6 7 8 9 10 11 12 13 14 15 16 17 18
456
FTAK31 PAJN 261738
TAFAPG
TAF
PAPG 261738Z 2618/2718 00000KT P6SM SCT004 SCT020 OVC035
      TEMPO 2618/2619 3SM BR BKN004
     FM262100 05004KT P6SM VCSH SCT015 BKN035
     FM270100 06005KT 6SM -SHRA VCTS SCT010 BKN020CB OVC030
     FM270700 VRB02KT P6SM VCSH SCT020 BKN050
     FM271100 00000KT 1SM BR BKN003 OVC020
      AMD LTD TO CLD VIS AND WIND 2706/2715=

USA.gov is the U.S. government's official web portal to all federal, state and local government web resources and services.